Big Bear Station Historical Data
 
Daily Summary for November 13, 2019 Units:  English    Metric   Both
Next Day »
Daily Weekly Monthly Yearly Custom
  Current: High: Low: Average:
Temperature: 42.6 °F 42.6 °F 31.3 °F 33.6 °F
Dew Point: 32.4 °F 33.3 °F 23 °F 27 °F
Humidity: 67% 87% 63% 77%
Wind Speed: 0mph 0mph 0mph 0mph
Wind Gust: -999mph -999mph - -
WindCalm - -
Pressure: 23.60 in 23.61 in 23.57 in -
Precipitation: 0 in      
Historical Graphs
 
 
Tabular Data for November 13, 2019
Time Temperature Dew Point Pressure Wind Wind Speed Wind Gust Humidity Rainfall Rate (Hourly)
00:07 34.5 °F 23.2 °F 23.61 in Calm   -999 mph 63% 0.00 in
00:22 34.5 °F 23.2 °F 23.60 in Calm   -999 mph 63% 0.00 in
00:37 34.3 °F 23 °F 23.60 in Calm   -999 mph 63% 0.00 in
00:53 34.2 °F 23.3 °F 23.60 in Calm   -999 mph 64% 0.00 in
01:08 33.6 °F 23.5 °F 23.59 in Calm   -999 mph 66% 0.00 in
01:23 34 °F 24.2 °F 23.59 in Calm   -999 mph 67% 0.00 in
01:38 33.4 °F 24.7 °F 23.59 in Calm   -999 mph 70% 0.00 in
01:53 33.6 °F 25.2 °F 23.59 in Calm   -999 mph 71% 0.00 in
02:09 33.6 °F 26.2 °F 23.59 in Calm   -999 mph 74% 0.00 in
02:24 33.1 °F 26 °F 23.59 in Calm   -999 mph 75% 0.00 in
02:39 33.1 °F 26 °F 23.59 in Calm   -999 mph 75% 0.00 in
02:54 32.9 °F 25.5 °F 23.59 in Calm   -999 mph 74% 0.00 in
03:09 32.9 °F 26.2 °F 23.58 in Calm   -999 mph 76% 0.00 in
03:25 32.7 °F 26.3 °F 23.58 in Calm   -999 mph 77% 0.00 in
03:40 32.4 °F 26 °F 23.58 in Calm   -999 mph 77% 0.00 in
03:55 32.2 °F 25.8 °F 23.57 in Calm   -999 mph 77% 0.00 in
04:10 32.5 °F 26.7 °F 23.58 in Calm   -999 mph 79% 0.00 in
04:25 32 °F 26.2 °F 23.58 in Calm   -999 mph 79% 0.00 in
04:41 31.8 °F 26 °F 23.58 in Calm   -999 mph 79% 0.00 in
04:56 31.8 °F 26 °F 23.58 in Calm   -999 mph 79% 0.00 in
05:11 32.2 °F 26.7 °F 23.58 in Calm   -999 mph 80% 0.00 in
05:26 32 °F 27.1 °F 23.58 in Calm   -999 mph 82% 0.00 in
05:41 31.8 °F 26.9 °F 23.58 in Calm   -999 mph 82% 0.00 in
05:57 31.3 °F 27 °F 23.58 in Calm   -999 mph 84% 0.00 in
06:12 31.6 °F 27.9 °F 23.58 in Calm   -999 mph 86% 0.00 in
06:27 32 °F 28 °F 23.58 in Calm   -999 mph 85% 0.00 in
06:42 31.8 °F 28.1 °F 23.59 in Calm   -999 mph 86% 0.00 in
06:58 31.6 °F 27.6 °F 23.59 in Calm   -999 mph 85% 0.00 in
07:13 32 °F 28.3 °F 23.59 in Calm   -999 mph 86% 0.00 in
07:28 32.2 °F 28.8 °F 23.59 in Calm   -999 mph 87% 0.00 in
07:43 33.1 °F 29.4 °F 23.60 in Calm   -999 mph 86% 0.00 in
07:58 34.2 °F 30.2 °F 23.60 in Calm   -999 mph 85% 0.00 in
08:14 35.4 °F 30.8 °F 23.60 in Calm   -999 mph 83% 0.00 in
08:29 36.9 °F 31.6 °F 23.60 in Calm   -999 mph 81% 0.00 in
08:44 38.3 °F 32.4 °F 23.60 in Calm   -999 mph 79% 0.00 in
08:59 40.3 °F 33.3 °F 23.60 in Calm   -999 mph 76% 0.00 in
09:14 42.6 °F 32.4 °F 23.60 in Calm   -999 mph 67% 0.00 in
Big Bear CA Weather